2016 Big Ticket Run/Walk

back to results

Jun. 25, 2016

2016 Big Ticket Run/Walk
Gaylord, MI
Provided by 3disciplines.com


Page 1

Results are compiled by Your Results.
Please direct any questions or corrections to
annmarie@3disciplines.com. Thank you.

BIG TICKET 5K RUN
GAYLORD, MI
JUNE 25, 2016

*** 5k RUN RESULTS ***

Place Div Sex/Tot No. Name Age Sex City/state Finish Pace
===== === ======== ==== =================== === === =================== ========== =====
1 1 1/63 715 Andrea Crowe 18 F Brighton MI 19:25.81 6:16
2 2 2/63 562 Sierra Albus 17 F Hesperia MI 19:30.68 6:17
3 1 1/48 538 Alex Nsengimana 27 M Boone NC 19:50.20 6:24
4 1 2/48 718 Bryan Deeren 39 M Ionia MI 20:38.10 6:39
5 1 3/48 719 Wilson Deeren 15 M Ionia MI 20:40.18 6:40
6 1 4/48 561 Noah Giraud 19 M Owasso MI 20:56.01 6:45
7 1 5/48 530 Danny Parr 47 M Collinsville OK 21:02.85 6:47
8 2 6/48 780 Jeff Walsworth 47 M Valparaiso IN 21:24.39 6:54
9 2 7/48 533 Seth Sturtevant 17 M Vanderbilt MI 21:48.76 7:02
10 2 8/48 739 Joel Holdcraft 40 M Holt MI 21:52.10 7:03
11 2 9/48 707 Micah Bragg 11 M Gaylord MI 22:42.30 7:19
12 1 3/63 726 Riley Ford 13 F Caro MI 22:48.03 7:21
13 3 10/48 765 Austin Smelker 12 M Lansing MI 23:15.08 7:30
14 4 11/48 539 Clint Ford 11 M Caro MI 23:36.86 7:37
15 3 4/63 736 Kim Hickey 24 F Grand Rapids MI 23:42.45 7:38
16 1 5/63 532 Fawn Southwell 38 F Mancelona MI 23:50.40 7:41
17 3 12/48 727 Eric Gerbe 25 M Gladwin MI 24:24.78 7:52
18 1 6/63 725 Charlotte Folkersma 29 F Sault Sainte Marie 24:25.53 7:52
19 4 13/48 706 Elijah Bragg 18 M Gaylord MI 24:44.15 7:58
20 2 7/63 564 Jacque McCloy 32 F Rockord MI 24:45.82 7:59
21 2 8/63 720 Karen Dextrom 39 F Lansing MI 24:47.04 7:59
22 3 14/48 781 David Willits 55 M Waterford MI 25:10.62 8:07
23 5 15/48 550 Dominic Farmer 19 M Traverse City MI 25:13.85 8:08
24 4 16/48 748 Michael Matthews 49 M Shelby Twp MI 25:43.99 8:17
25 3 17/48 704 Richard Beyers 42 M Saginaw MI 25:50.46 8:20
26 5 18/48 537 Alex Gapinski 10 M Joburg MI 25:52.19 8:20
27 3 9/63 540 Amy Ford 45 F Caro MI 26:02.51 8:23
28 6 19/48 721 Logan Dextrom 11 M Lansing MI 26:06.73 8:25
29 4 10/63 733 Hannah Helferich 19 F Williamsburg MI 26:12.71 8:27
30 4 11/63 544 Jessica Krueger 40 F Hubbard Lake MI 26:54.63 8:40
31 3 12/63 746 Amber Lownsberry 29 F Oxford MI 26:58.73 8:42
32 7 20/48 738 Ethan Holdcraft 11 M Holt MI 27:19.54 8:48
33 1 21/48 769 Richard Standiford 60 M Warren MI 27:26.14 8:50
34 1 13/63 757 Kara Oneil 53 F Harbor Springs MI 27:28.37 8:51
35 5 22/48 716 Terry Davis 50 M Lansing MI 27:35.50 8:53
36 5 14/63 750 Olivia McDonald 23 F St. Ignace MI 27:39.85 8:55
37 5 15/63 777 Stephanie Vert 43 F Sault Ste Marie MI 27:43.51 8:56
38 6 23/48 560 Aiden Cartnay 20 M Owasso MI 28:04.26 9:03
39 2 16/63 737 Michelle Hoffman 49 F Shelbyville MI 28:04.37 9:03
40 6 24/48 730 Gregory Hartlein 47 M Brighton MI 28:17.20 9:07
41 3 17/63 749 Patty Matthews 52 F Shelby Twp MI 28:23.42 9:09
42 7 25/48 708 Rod Bragg 55 M Gaylord MI 28:48.51 9:17
43 4 26/48 740 David Hornung 43 M Leonard MI 29:02.88 9:21
44 8 27/48 729 Toby Goodale 47 M Traverse City MI 29:34.12 9:32
45 8 28/48 754 Matthew Mosher 15 M Galesburg MI 29:36.41 9:32
46 9 29/48 557 Caleb Dobey 14 M Wolverine MI 29:46.54 9:36
47 2 30/48 771 L Lamar Styer 62 M Sault Sainte Marie 29:55.20 9:38
48 2 18/63 775 Shannon Veld 15 F Wayland MI 29:55.56 9:38
49 3 19/63 751 Ana McGuire 13 F Weidman MI 30:00.95 9:40
50 4 20/63 547 Molly Walker 8 F Kingston MI 30:07.21 9:42
51 5 21/63 546 Gracy Walker 10 F Kingston MI 30:13.24 9:44
52 4 22/63 545 Brooke Walker 34 F Kingston MI 30:15.15 9:45
53 4 23/63 772 Nancy Swanson 46 F Temperance MI 30:17.81 9:46
54 6 24/63 552 Chesaney Wenzlaff 9 F Kingston MI 30:21.95 9:47
55 7 25/63 756 Emma Oneil 12 F Harbor Springs MI 30:26.24 9:48
56 9 31/48 755 David Oneil 47 M Harbor Springs MI 30:26.93 9:49
57 6 26/63 717 Amy Decker 40 F Richmond MI 30:38.04 9:52
58 5 27/63 741 Melanie Krohn 35 F Bad Axe MI 30:59.95 9:59
59 8 28/63 779 Emily Walsworth 14 F Valparaiso IN 31:04.21 10:01
60 9 29/63 732 Lillian Hauswirth 12 F Rock MI 31:35.54 10:11
61 10 30/63 713 Allyssa Cross 13 F Petoskey MI 32:26.30 10:27
62 10 32/48 714 Steve Cross 48 M Petoskey MI 32:27.17 10:27
63 3 33/48 742 Anthony Landry 57 M Ortonville MI 32:36.37 10:30
64 2 34/48 556 Jonas Russell 32 M Clare MI 32:38.86 10:31
65 6 31/63 555 Tiffany Russell 32 F Clare MI 32:39.46 10:31
66 5 32/63 752 Linda McGuire 55 F Weidman MI 32:42.29 10:32
67 7 33/63 745 Teri Lash 36 F Clarkston MI 32:42.65 10:32
68 8 34/63 548 Jen Swartz 38 F Kawkawlin MI 32:43.62 10:33
69 9 35/63 549 Stacey James 37 F Kingston MI 33:16.78 10:43
70 10 35/48 551 Tanner James 8 M Kingston MI 33:17.01 10:43
71 6 36/63 743 Susan Landry 48 F Ortonville MI 33:27.11 10:47
72 11 37/63 559 Sophia Hauswirth 10 F Gaylord MI 34:13.59 11:01
73 5 36/48 731 Jeremy Hauswirth 40 M Rock MI 34:13.78 11:02
74 4 37/48 759 James Payne 58 M Manchester MI 35:07.13 11:19
75 12 38/63 536 Madison Krohn 15 F Bad Axe MI 35:45.18 11:31
76 6 39/63 535 Halle Keim 16 F Bay Port MI 35:45.39 11:31
77 11 38/48 778 Caden Walsworth 13 M Valparaiso IN 36:04.59 11:37
78 7 40/63 563 Nola Mark 48 F MI 36:21.21 11:43
79 13 41/63 776 Breanna Vert 14 F Sault Ste Marie MI 36:28.00 11:45
80 10 42/63 734 Jennifer Helferich 44 F Williamsburg MI 36:48.46 11:51
81 7 43/63 761 Maegan Payne 29 F Manchester MI 37:08.86 11:58
82 3 39/48 558 Mark Hauswirth 35 M Gaylord MI 37:11.11 11:59
83 14 44/63 773 Emily Veld 11 F Wayland MI 37:14.29 12:00
84 11 45/63 774 Rachael Veld 38 F Wayland MI 37:14.70 12:00
85 15 46/63 531 Ellie Erickson 13 F New Era MI 37:19.34 12:01
86 6 40/48 529 Brian Erickson 43 M New Era MI 37:19.40 12:01
87 11 41/48 768 Michael Spires 47 M Mancelona MI 37:23.88 12:03
88 12 47/63 767 Brenda Spires 44 F Mancelona MI 37:24.29 12:03
89 8 48/63 554 Rhonda Goode 48 F Cheboygen MI 38:38.57 12:27
90 12 42/48 710 Jeff Bunker 51 M Stignace MI 39:15.81 12:39
91 9 49/63 711 Kathleen Bunker 49 F Stignace MI 39:16.07 12:39
92 7 43/48 728 Sean Gerbe 23 M Gladwin MI 40:13.62 12:57
93 7 50/63 764 Kristin Shoat 19 F Gladwin MI 40:13.79 12:57
94 8 51/63 760 Jamie Payne 23 F Manchester MI 40:41.23 13:06
95 9 52/63 553 Alexi Provo 20 F Jordan River MI 41:42.38 13:26
96 13 53/63 534 Gina Sanchez 37 F Ann Arbor MI 43:35.04 14:02
97 4 44/48 712 Karl Burr 29 M Pinckney MI 43:41.24 14:04
98 12 45/48 762 Liam Quinn 10 M Warren MI 44:52.25 14:27
99 14 54/63 763 Lisa Quinn 40 F Warren MI 45:04.27 14:31
100 1 55/63 770 Charmaine Styer 57 F Sault Sainte Marie 45:15.49 14:35
101 15 56/63 766 Amy Smithers 41 F Bad Axe MI 45:54.66 14:47
102 10 57/63 782 Stephanie Wilson 24 F Allegan MI 48:03.88 15:29
103 10 58/63 753 Shelly Modreske 46 F Hopkins MI 49:19.08 15:53
104 11 59/63 542 Gretchen Herold 53 F Atlanta MI 50:51.05 16:23
105 2 60/63 543 Katie Dahlgren 59 F Atlanta MI 50:51.50 16:23
106 5 46/48 541 Steve Herold 57 M Atlanta MI 50:52.27 16:23
107 3 61/63 701 Laura Reed 58 F Traverse City MI 51:31.92 16:36
108 13 47/48 724 Jeff Firestone 53 M New Hudson MI 55:05.31 17:44
109 4 62/63 758 Debra Payne 63 F Manchester MI 57:07.53 18:24
110 5 63/63 783 Lorri Yusten 57 F Lansing, MI 1:05:07.76 20:58
111 14 48/48 744 Gordon Larkins 55 M Dewitt MI 1:05:08.03 20:58